Time;durP1;ratioP1;P1;durP2;ratioP2;P2;SDS_P1;SDS_P2;PMS_P1;PMS_P2;Temp;Humidity;BMP_temperature;BMP_pressure;BME280_temperature;BME280_humidity;BME280_pressure;Samples;Min_cycle;Max_cycle;Signal;HPM_P1;HPM_P2
2022/06/23 00:02:41;;;;;;;1.17;0.85;;;;;;;31.88;38.28;98814.23;1814422;78;38646;-46
2022/06/23 00:05:32;;;;;;;1.25;0.80;;;;;;;31.88;38.36;98811.45;1825988;77;28305;-43
2022/06/23 00:08:21;;;;;;;2.05;0.85;;;;;;;31.88;38.41;98810.06;1835252;76;28314;-43
2022/06/23 00:11:18;;;;;;;1.15;0.93;;;;;;;31.91;38.42;98802.47;1824205;76;28284;-44
2022/06/23 00:14:15;;;;;;;1.20;0.80;;;;;;;31.89;38.42;98795.02;1831904;77;28223;-42
2022/06/23 00:17:26;;;;;;;1.02;0.93;;;;;;;31.87;38.41;98792.56;1800083;77;28247;-42
2022/06/23 00:20:23;;;;;;;0.90;0.90;;;;;;;31.88;38.40;98790.63;1817746;76;32205;-45
2022/06/23 00:23:18;;;;;;;0.88;0.88;;;;;;;31.84;38.47;98789.58;1824233;77;28295;-44
2022/06/23 00:26:15;;;;;;;1.92;1.15;;;;;;;31.83;38.45;98790.73;1818218;77;28348;-45
2022/06/23 00:29:07;;;;;;;1.25;0.70;;;;;;;31.82;38.51;98789.08;1837870;77;28202;-43
2022/06/23 00:31:58;;;;;;;0.90;0.90;;;;;;;31.82;38.47;98788.52;1825004;77;28231;-44
2022/06/23 00:35:05;;;;;;;1.07;0.90;;;;;;;31.83;38.50;98798.50;1813305;78;28381;-45
2022/06/23 00:37:54;;;;;;;1.90;0.90;;;;;;;31.82;38.48;98795.45;1829885;77;28366;-43
2022/06/23 00:40:44;;;;;;;1.30;0.80;;;;;;;31.82;38.53;98798.80;1839079;77;30303;-43
2022/06/23 00:43:33;;;;;;;1.42;0.75;;;;;;;31.81;38.53;98798.56;1815322;77;28251;-42
2022/06/23 00:46:24;;;;;;;1.02;0.93;;;;;;;31.84;38.52;98798.73;1820385;77;28470;-43
2022/06/23 00:49:24;;;;;;;1.00;0.90;;;;;;;31.83;38.50;98797.67;1820605;77;28355;-43
2022/06/23 00:52:28;;;;;;;1.10;0.80;;;;;;;31.85;38.53;98791.23;1827684;76;28331;-42
2022/06/23 00:55:38;;;;;;;0.82;0.82;;;;;;;31.83;38.58;98786.56;1791965;77;28261;-44
2022/06/23 00:58:41;;;;;;;0.90;0.80;;;;;;;31.81;38.63;98779.11;1822178;76;28193;-46
2022/06/23 01:01:44;;;;;;;2.65;0.85;;;;;;;31.79;38.66;98774.41;1808317;78;28349;-47
2022/06/23 01:04:54;;;;;;;0.72;0.72;;;;;;;31.78;38.69;98775.00;1826240;77;28169;-44
2022/06/23 01:08:02;;;;;;;2.20;1.00;;;;;;;31.77;38.71;98775.30;1824729;77;28337;-43
2022/06/23 01:11:02;;;;;;;1.00;0.80;;;;;;;31.76;38.81;98774.50;1817173;78;28340;-44
2022/06/23 01:14:16;;;;;;;1.73;0.90;;;;;;;31.76;38.81;98783.39;1753095;78;28507;-44
2022/06/23 01:17:18;;;;;;;1.22;0.72;;;;;;;31.76;38.85;98777.84;1814474;77;28286;-45
2022/06/23 01:20:25;;;;;;;0.95;0.80;;;;;;;31.74;38.92;98782.89;1810988;76;28203;-43
2022/06/23 01:23:29;;;;;;;2.17;0.50;;;;;;;31.73;38.93;98784.84;1820453;77;28184;-45
2022/06/23 01:26:26;;;;;;;0.60;0.60;;;;;;;31.73;38.87;98786.23;1815465;77;28296;-47
2022/06/23 01:29:34;;;;;;;0.95;0.80;;;;;;;31.73;38.91;98779.84;1819410;77;28271;-43
2022/06/23 01:32:31;;;;;;;1.07;0.75;;;;;;;31.74;38.93;98784.28;1834924;77;28590;-45
2022/06/23 01:35:24;;;;;;;1.30;1.00;;;;;;;31.73;38.92;98782.62;1805584;76;28466;-42
2022/06/23 01:38:40;;;;;;;0.90;0.70;;;;;;;31.74;38.92;98778.72;1830955;77;28323;-45
2022/06/23 01:41:41;;;;;;;1.20;0.60;;;;;;;31.75;38.87;98780.34;1828091;77;28314;-45
2022/06/23 01:44:41;;;;;;;1.10;0.90;;;;;;;31.73;38.91;98779.28;1818626;77;28799;-44
2022/06/23 01:47:38;;;;;;;1.60;0.60;;;;;;;31.73;38.89;98772.90;1811239;78;28257;-44
2022/06/23 01:50:33;;;;;;;0.70;0.70;;;;;;;31.75;38.84;98778.95;1821087;77;28266;-42
2022/06/23 01:53:27;;;;;;;1.00;0.80;;;;;;;31.74;38.86;98776.73;1837026;77;28311;-44
2022/06/23 01:56:28;;;;;;;0.70;0.60;;;;;;;31.75;38.84;98771.45;1825185;76;28281;-42
2022/06/23 01:59:38;;;;;;;0.80;0.65;;;;;;;31.76;38.84;98780.61;1838146;77;28237;-46
2022/06/23 02:02:33;;;;;;;0.90;0.85;;;;;;;31.73;38.81;98770.12;1815917;77;28740;-44
2022/06/23 02:05:27;;;;;;;0.80;0.80;;;;;;;31.73;38.87;98771.52;1834606;77;28291;-44
2022/06/23 02:08:40;;;;;;;1.00;0.78;;;;;;;31.75;38.87;98778.95;1820866;77;28147;-44
2022/06/23 02:11:40;;;;;;;1.47;0.90;;;;;;;31.75;38.85;98780.34;1821332;78;28293;-44
2022/06/23 02:14:45;;;;;;;0.88;0.88;;;;;;;31.71;38.93;98778.77;1818511;77;28276;-44
2022/06/23 02:17:45;;;;;;;0.70;0.70;;;;;;;31.72;38.92;98778.19;1826842;77;28430;-43
2022/06/23 02:20:40;;;;;;;0.78;0.70;;;;;;;31.71;38.95;98782.11;1806591;78;28265;-47
2022/06/23 02:23:35;;;;;;;1.45;1.00;;;;;;;31.71;38.99;98782.11;1818983;77;28295;-44
2022/06/23 02:26:44;;;;;;;0.82;0.70;;;;;;;31.73;38.99;98787.61;1828991;77;28628;-43
2022/06/23 02:29:38;;;;;;;0.75;0.70;;;;;;;31.74;38.99;98784.28;1799915;78;28331;-46
2022/06/23 02:32:49;;;;;;;0.85;0.80;;;;;;;31.72;39.01;98787.34;1836679;77;28189;-45
2022/06/23 02:35:56;;;;;;;0.70;0.60;;;;;;;31.73;39.01;98790.95;1827344;76;28258;-44
2022/06/23 02:38:50;;;;;;;1.17;0.80;;;;;;;31.71;38.99;98789.89;1834402;77;28367;-43
2022/06/23 02:41:48;;;;;;;0.68;0.68;;;;;;;31.70;39.04;98791.00;1819118;77;28238;-42
2022/06/23 02:45:07;;;;;;;0.60;0.60;;;;;;;31.72;39.07;98786.52;1824610;77;28197;-43
2022/06/23 02:48:21;;;;;;;1.47;0.63;;;;;;;31.73;39.02;98785.39;1825301;77;28333;-43
2022/06/23 02:51:47;;;;;;;3.45;1.02;;;;;;;31.69;39.06;98782.44;1825548;77;28304;-43
2022/06/23 02:54:47;;;;;;;0.93;0.75;;;;;;;31.66;39.11;98784.44;1826392;77;28275;-45
2022/06/23 02:57:59;;;;;;;0.75;0.75;;;;;;;31.63;39.20;98780.89;1829829;77;28291;-44
2022/06/23 03:00:50;;;;;;;0.93;0.93;;;;;;;31.66;39.20;98786.39;1822990;76;28820;-47
2022/06/23 03:03:41;;;;;;;1.50;1.00;;;;;;;31.64;39.16;98783.11;1820386;77;28339;-43
2022/06/23 03:06:50;;;;;;;1.50;0.70;;;;;;;31.68;39.13;98787.72;1827562;76;28163;-45
2022/06/23 03:09:41;;;;;;;0.80;0.78;;;;;;;31.71;39.08;98789.05;1826992;77;28106;-46
2022/06/23 03:12:33;;;;;;;1.77;0.80;;;;;;;31.70;39.06;98791.56;1824288;77;28231;-42
2022/06/23 03:15:30;;;;;;;0.70;0.60;;;;;;;31.70;39.05;98795.17;1818955;77;28162;-46
2022/06/23 03:18:51;;;;;;;1.05;0.90;;;;;;;31.73;39.02;98795.12;1828513;76;28214;-42
2022/06/23 03:21:50;;;;;;;2.12;1.10;;;;;;;31.71;38.99;98791.83;1820451;76;28210;-47
2022/06/23 03:24:45;;;;;;;3.52;1.40;;;;;;;31.63;39.30;98802.28;1819389;78;28399;-47
2022/06/23 03:28:03;;;;;;;4.45;1.75;;;;;;;31.35;39.67;98800.89;1815046;78;28334;-45
2022/06/23 03:31:12;;;;;;;2.95;1.70;;;;;;;31.20;39.92;98807.33;1800138;77;28390;-46
2022/06/23 03:34:06;;;;;;;2.55;1.32;;;;;;;30.96;40.30;98815.84;1808501;77;28281;-48
2022/06/23 03:36:57;;;;;;;3.25;1.32;;;;;;;30.80;40.51;98815.83;1817841;77;28275;-46
2022/06/23 03:43:04;;;;;;;2.83;1.52;;;;;;;30.62;40.85;98807.81;1808651;78;28365;-43
2022/06/23 03:46:22;;;;;;;3.27;1.50;;;;;;;30.52;41.09;98812.73;1823512;77;28143;-45
2022/06/23 03:49:25;;;;;;;3.42;1.50;;;;;;;30.46;41.18;98812.53;1831375;77;28253;-46
2022/06/23 03:52:23;;;;;;;3.10;1.37;;;;;;;30.30;41.54;98807.78;1791956;76;28426;-49
2022/06/23 03:55:21;;;;;;;6.58;1.77;;;;;;;30.22;41.59;98807.66;1830093;77;28306;-45
2022/06/23 03:58:24;;;;;;;4.43;1.60;;;;;;;30.19;41.69;98815.18;1809169;77;28269;-47
2022/06/23 04:01:15;;;;;;;4.30;1.85;;;;;;;30.12;41.74;98816.95;1813180;76;28583;-42
2022/06/23 04:04:07;;;;;;;5.62;1.67;;;;;;;30.04;41.92;98814.84;1818376;77;28304;-45
2022/06/23 04:06:55;;;;;;;3.95;2.05;;;;;;;29.98;41.94;98819.66;1781564;79;30440;-43
2022/06/23 04:09:43;;;;;;;3.37;1.70;;;;;;;29.94;41.96;98819.97;1781358;78;28657;-44
2022/06/23 04:12:34;;;;;;;3.03;1.63;;;;;;;29.95;41.92;98824.95;1814040;78;28429;-43
2022/06/23 04:15:28;;;;;;;2.00;1.50;;;;;;;29.96;41.95;98826.06;1818404;78;28345;-46
2022/06/23 04:18:26;;;;;;;4.30;1.60;;;;;;;29.87;42.14;98822.29;1843458;76;28318;-46
2022/06/23 04:21:18;;;;;;;2.80;1.40;;;;;;;29.85;42.33;98827.89;1786023;78;28366;-46
2022/06/23 04:24:08;;;;;;;3.77;1.77;;;;;;;29.80;42.48;98821.83;1812997;77;28307;-47
2022/06/23 04:27:00;;;;;;;4.35;1.85;;;;;;;29.74;42.64;98824.95;1809320;77;28360;-46
2022/06/23 04:29:52;;;;;;;6.08;1.77;;;;;;;29.70;42.75;98820.58;1828817;77;28216;-46
2022/06/23 04:32:41;;;;;;;3.52;1.50;;;;;;;29.65;42.79;98825.34;1821364;77;28368;-46
2022/06/23 04:35:32;;;;;;;4.55;1.60;;;;;;;29.60;43.02;98821.27;1815664;77;28313;-46
2022/06/23 04:38:23;;;;;;;2.92;1.40;;;;;;;29.60;43.02;98822.09;1830236;76;32163;-46
2022/06/23 04:41:17;;;;;;;4.87;1.55;;;;;;;29.55;43.15;98828.23;1808990;76;28426;-46
2022/06/23 04:44:18;;;;;;;3.87;1.30;;;;;;;29.53;43.18;98824.95;1799082;78;28313;-45
2022/06/23 04:47:09;;;;;;;3.80;1.32;;;;;;;29.48;43.19;98822.27;1783553;78;28247;-45
2022/06/23 04:50:06;;;;;;;3.80;1.60;;;;;;;29.43;43.32;98822.58;1831445;77;28210;-45
2022/06/23 04:52:57;;;;;;;5.30;1.45;;;;;;;29.35;43.41;98816.33;1827205;77;28221;-45
2022/06/23 04:55:49;;;;;;;4.20;1.32;;;;;;;29.33;43.49;98808.06;1813681;78;28410;-46
2022/06/23 04:58:39;;;;;;;2.02;1.30;;;;;;;29.29;43.60;98811.16;1826292;77;28407;-44
2022/06/23 05:01:31;;;;;;;1.80;1.22;;;;;;;29.26;43.60;98815.89;1792938;77;28431;-46
2022/06/23 05:04:22;;;;;;;3.10;1.40;;;;;;;29.30;43.57;98814.17;1824872;77;28297;-44
2022/06/23 05:07:16;;;;;;;2.75;1.22;;;;;;;29.29;43.69;98812.55;1821213;77;28666;-45
2022/06/23 05:10:08;;;;;;;4.97;1.60;;;;;;;29.24;43.64;98801.54;1824423;77;28345;-48
2022/06/23 05:13:02;;;;;;;4.78;1.60;;;;;;;29.28;43.67;98808.95;1825809;76;28276;-45
2022/06/23 05:16:06;;;;;;;3.83;1.63;;;;;;;29.27;43.74;98811.44;1829221;76;28329;-43
2022/06/23 05:18:56;;;;;;;1.62;1.47;;;;;;;29.26;43.77;98818.66;1802570;77;28294;-46
2022/06/23 05:21:47;;;;;;;2.10;1.47;;;;;;;29.24;43.89;98815.38;1827253;77;28357;-47
2022/06/23 05:24:41;;;;;;;3.58;1.40;;;;;;;29.23;43.92;98814.54;1839615;77;28321;-46
2022/06/23 05:27:36;;;;;;;2.80;1.67;;;;;;;29.24;43.92;98818.14;1827040;76;28246;-45
2022/06/23 05:30:33;;;;;;;3.37;1.42;;;;;;;29.22;44.12;98814.84;1831901;77;28216;-45
2022/06/23 05:33:37;;;;;;;2.20;1.30;;;;;;;29.26;43.99;98815.89;1817538;77;28336;-44
2022/06/23 05:36:31;;;;;;;2.80;1.30;;;;;;;29.29;43.92;98813.34;1816946;77;30277;-42
2022/06/23 05:39:25;;;;;;;2.95;1.40;;;;;;;29.33;43.73;98813.05;1817053;78;28280;-43
2022/06/23 05:42:28;;;;;;;2.65;1.35;;;;;;;29.43;43.57;98818.19;1776880;79;28860;-42
2022/06/23 05:45:25;;;;;;;2.25;1.20;;;;;;;29.45;43.44;98808.47;1768335;79;28378;-44
2022/06/23 05:48:19;;;;;;;5.25;1.70;;;;;;;29.47;43.37;98808.99;1780868;78;28369;-46
2022/06/23 05:51:10;;;;;;;3.40;1.35;;;;;;;29.51;43.30;98814.19;1760380;79;28402;-42
2022/06/23 05:54:07;;;;;;;3.50;1.40;;;;;;;29.56;43.20;98809.98;1836129;76;28324;-46
2022/06/23 05:57:08;;;;;;;1.50;1.20;;;;;;;29.66;43.15;98808.47;1824270;77;28336;-43
2022/06/23 06:00:07;;;;;;;3.72;1.30;;;;;;;29.74;43.07;98819.41;1820243;77;28305;-43
2022/06/23 06:02:58;;;;;;;1.45;1.15;;;;;;;29.82;42.71;98825.16;1827715;77;28605;-44
2022/06/23 06:05:52;;;;;;;1.32;1.20;;;;;;;29.84;42.58;98826.23;1821872;77;28322;-44
2022/06/23 06:11:53;;;;;;;1.92;1.17;;;;;;;29.99;42.25;98826.83;1827134;77;28404;-44
2022/06/23 06:14:44;;;;;;;3.22;1.37;;;;;;;30.03;42.10;98826.51;1823653;76;30128;-42
2022/06/23 06:17:35;;;;;;;2.73;1.30;;;;;;;30.12;41.98;98829.97;1819973;77;28375;-44
2022/06/23 06:20:26;;;;;;;3.25;1.40;;;;;;;30.15;41.82;98830.77;1822309;76;28333;-44
2022/06/23 06:23:20;;;;;;;1.77;1.30;;;;;;;30.16;41.97;98829.63;1834662;77;28271;-45
2022/06/23 06:26:14;;;;;;;2.25;1.30;;;;;;;30.22;41.89;98830.66;1789190;77;28335;-42
2022/06/23 06:29:14;;;;;;;3.72;1.35;;;;;;;30.25;41.90;98831.41;1821816;77;28295;-42
2022/06/23 06:32:33;;;;;;;4.58;1.50;;;;;;;30.29;41.79;98826.94;1814151;78;28283;-44
2022/06/23 06:35:28;;;;;;;2.37;1.30;;;;;;;30.32;41.84;98825.48;1753142;79;28514;-43
2022/06/23 06:38:18;;;;;;;4.25;1.50;;;;;;;30.33;41.84;98820.25;1825934;76;34181;-46
2022/06/23 06:41:07;;;;;;;2.00;1.12;;;;;;;30.39;41.70;98823.19;1827694;77;28276;-42
2022/06/23 06:43:57;;;;;;;2.50;1.07;;;;;;;30.42;41.61;98821.20;1834651;77;28365;-44
2022/06/23 06:46:46;;;;;;;2.10;1.30;;;;;;;30.46;41.54;98811.15;1838372;76;28464;-42
2022/06/23 06:49:35;;;;;;;2.22;1.30;;;;;;;30.51;41.46;98810.52;1821644;77;28209;-44
2022/06/23 06:52:24;;;;;;;3.50;1.27;;;;;;;30.53;41.50;98813.80;1832039;77;28238;-44
2022/06/23 06:55:18;;;;;;;1.60;1.00;;;;;;;30.53;41.84;98812.97;1822993;77;32289;-48
2022/06/23 06:58:15;;;;;;;2.58;1.40;;;;;;;30.55;42.06;98807.38;1808540;77;28220;-42
2022/06/23 07:01:12;;;;;;;1.32;1.22;;;;;;;30.58;42.07;98803.19;1733386;80;28657;-44
2022/06/23 07:04:01;;;;;;;2.10;1.17;;;;;;;30.58;42.48;98795.70;1838907;77;28894;-45
2022/06/23 07:06:53;;;;;;;3.27;1.32;;;;;;;30.62;42.44;98802.86;1824903;76;28531;-45
2022/06/23 07:09:54;;;;;;;2.67;1.17;;;;;;;30.67;42.39;98802.74;1808496;77;28344;-42
2022/06/23 07:12:48;;;;;;;1.90;1.32;;;;;;;30.69;42.32;98799.13;1834367;76;28261;-42
2022/06/23 07:15:45;;;;;;;2.47;1.47;;;;;;;30.72;42.12;98788.23;1776684;79;28554;-42
2022/06/23 07:18:43;;;;;;;2.30;1.10;;;;;;;30.73;42.19;98784.91;1812275;78;28143;-43
2022/06/23 07:21:47;;;;;;;3.30;1.30;;;;;;;30.76;41.91;98778.72;1831800;76;28263;-44
2022/06/23 07:24:41;;;;;;;3.05;1.22;;;;;;;30.77;41.80;98776.22;1849788;76;32356;-41
2022/06/23 07:27:58;;;;;;;2.52;1.25;;;;;;;30.75;41.83;98775.16;1824525;76;28315;-44
2022/06/23 07:30:55;;;;;;;2.08;1.20;;;;;;;30.77;41.82;98763.75;1813847;78;28453;-42
2022/06/23 07:33:47;;;;;;;2.02;0.98;;;;;;;30.74;41.89;98753.25;1813704;77;28264;-43
2022/06/23 07:36:42;;;;;;;3.33;1.50;;;;;;;30.79;41.80;98742.07;1817308;77;28419;-43
2022/06/23 07:39:36;;;;;;;3.80;1.20;;;;;;;30.83;41.74;98743.68;1819620;77;28260;-41
2022/06/23 07:42:42;;;;;;;2.12;1.25;;;;;;;30.84;41.71;98732.83;1816881;77;28100;-42
2022/06/23 07:45:40;;;;;;;2.55;1.27;;;;;;;30.86;41.64;98731.39;1802593;78;28419;-46
2022/06/23 07:48:32;;;;;;;2.15;1.15;;;;;;;30.88;41.59;98731.11;1847577;76;28325;-43
2022/06/23 07:51:20;;;;;;;2.30;1.10;;;;;;;30.87;41.33;98733.61;1823086;77;28312;-41
2022/06/23 07:54:12;;;;;;;1.67;1.10;;;;;;;30.88;41.30;98726.39;1828036;77;28226;-41
2022/06/23 07:57:00;;;;;;;4.33;1.20;;;;;;;30.91;41.22;98720.23;1815863;77;28253;-42
2022/06/23 07:59:51;;;;;;;2.60;1.25;;;;;;;30.92;41.11;98717.73;1772346;79;28464;-43
2022/06/23 08:02:43;;;;;;;1.80;1.10;;;;;;;30.96;41.12;98720.14;1805443;77;28343;-45
2022/06/23 08:05:46;;;;;;;1.20;1.00;;;;;;;30.98;41.03;98719.81;1831888;76;28800;-44
2022/06/23 08:08:38;;;;;;;1.32;1.02;;;;;;;30.98;40.93;98706.77;1847297;76;28246;-46
2022/06/23 08:14:37;;;;;;;1.47;1.12;;;;;;;30.96;41.08;98695.17;1834032;76;28275;-44
2022/06/23 08:17:27;;;;;;;3.25;1.27;;;;;;;30.96;41.02;98692.40;1818727;77;28420;-44
2022/06/23 08:20:18;;;;;;;1.75;1.10;;;;;;;30.97;40.97;98688.48;1808147;77;28377;-42
2022/06/23 08:23:09;;;;;;;2.42;1.17;;;;;;;31.02;40.78;98691.70;1823856;77;28260;-41
2022/06/23 08:26:00;;;;;;;1.25;0.90;;;;;;;31.03;40.75;98690.59;1829023;77;28306;-43
2022/06/23 08:28:52;;;;;;;1.12;0.88;;;;;;;31.02;40.73;98684.22;1812375;77;28323;-43
2022/06/23 08:31:41;;;;;;;2.50;1.10;;;;;;;31.03;40.69;98678.94;1832050;77;28305;-42
2022/06/23 08:34:32;;;;;;;1.22;0.93;;;;;;;31.05;40.72;98680.00;1839887;77;28260;-41
2022/06/23 08:37:24;;;;;;;1.85;1.07;;;;;;;31.06;40.66;98672.78;1820314;77;28352;-42
2022/06/23 08:40:39;;;;;;;1.55;0.93;;;;;;;31.07;40.68;98661.91;1836611;76;28307;-42
2022/06/23 08:44:03;;;;;;;2.25;1.30;;;;;;;31.06;40.67;98661.67;1825353;78;28324;-42
2022/06/23 08:47:19;;;;;;;0.98;0.90;;;;;;;31.03;40.67;98651.75;1815864;77;28202;-42
2022/06/23 08:50:11;;;;;;;0.93;0.82;;;;;;;31.00;40.74;98647.64;1832409;77;28263;-43
2022/06/23 08:53:23;;;;;;;1.40;1.00;;;;;;;30.99;40.70;98646.58;1825913;77;28186;-42
2022/06/23 08:56:15;;;;;;;1.37;0.95;;;;;;;31.04;40.69;98633.40;1843213;77;28453;-43
2022/06/23 08:59:28;;;;;;;1.70;1.00;;;;;;;31.04;40.67;98629.83;1826650;78;28268;-43
2022/06/23 09:02:28;;;;;;;1.87;1.00;;;;;;;31.07;40.63;98631.39;1828714;77;28318;-43
2022/06/23 09:05:29;;;;;;;1.20;1.02;;;;;;;31.06;40.60;98635.33;1840839;77;28380;-42
2022/06/23 09:08:32;;;;;;;1.72;1.02;;;;;;;31.07;40.57;98634.73;1835088;77;28361;-44
2022/06/23 09:11:36;;;;;;;1.37;0.90;;;;;;;31.06;40.52;98631.16;1817629;77;28203;-44
2022/06/23 09:14:30;;;;;;;1.10;1.10;;;;;;;31.07;40.46;98635.56;1808578;77;28326;-43
2022/06/23 09:17:31;;;;;;;1.07;1.00;;;;;;;31.08;40.40;98623.34;1797371;77;28214;-45
2022/06/23 09:20:36;;;;;;;1.10;1.00;;;;;;;31.10;40.39;98622.46;1826985;77;28250;-42
2022/06/23 09:23:36;;;;;;;2.35;1.02;;;;;;;31.12;40.32;98620.19;1811993;77;38615;-44
2022/06/23 09:26:45;;;;;;;1.80;0.97;;;;;;;31.12;40.34;98616.03;1839770;77;28278;-43
2022/06/23 09:29:42;;;;;;;1.12;1.02;;;;;;;31.13;40.27;98612.14;1837464;77;28362;-41
2022/06/23 09:32:52;;;;;;;1.60;1.07;;;;;;;31.13;40.30;98622.41;1830702;77;28200;-43
2022/06/23 09:35:44;;;;;;;1.00;1.00;;;;;;;31.12;40.29;98613.25;1825568;77;28323;-44
2022/06/23 09:38:56;;;;;;;1.42;1.00;;;;;;;31.13;40.22;98614.91;1836851;77;28678;-41
2022/06/23 09:41:48;;;;;;;1.20;1.07;;;;;;;31.15;40.24;98622.91;1775493;78;28538;-42
2022/06/23 09:44:54;;;;;;;1.07;1.00;;;;;;;31.14;40.24;98617.09;1815924;77;28336;-43
2022/06/23 09:48:01;;;;;;;1.20;1.10;;;;;;;31.15;40.22;98610.42;1832902;77;28405;-42
2022/06/23 09:51:04;;;;;;;1.00;1.00;;;;;;;31.17;40.17;98623.41;1839750;76;28351;-45
2022/06/23 09:54:19;;;;;;;1.35;1.05;;;;;;;31.16;40.14;98610.66;1821237;77;35364;-43
2022/06/23 09:57:17;;;;;;;1.50;1.20;;;;;;;31.16;40.12;98613.44;1832029;77;28333;-42
2022/06/23 10:00:12;;;;;;;2.47;1.10;;;;;;;31.13;40.16;98603.81;1836397;77;28824;-42
2022/06/23 10:03:15;;;;;;;1.83;1.10;;;;;;;31.15;40.11;98602.93;1802945;78;28384;-41
2022/06/23 10:06:09;;;;;;;3.35;1.25;;;;;;;31.17;40.03;98597.88;1825712;77;28253;-42
2022/06/23 10:09:19;;;;;;;1.15;1.00;;;;;;;31.18;40.00;98598.13;1821356;77;28412;-42
2022/06/23 10:12:16;;;;;;;3.50;0.95;;;;;;;31.21;39.96;98591.13;1823481;76;28342;-44
2022/06/23 10:15:20;;;;;;;1.22;0.90;;;;;;;31.20;40.00;98586.73;1816120;77;28187;-42
2022/06/23 10:18:39;;;;;;;1.80;0.90;;;;;;;31.20;39.97;98583.36;1826233;77;28345;-41
2022/06/23 10:22:02;;;;;;;1.40;0.88;;;;;;;31.21;39.94;98578.08;1828018;77;28259;-41
2022/06/23 10:25:05;;;;;;;0.82;0.82;;;;;;;31.19;39.99;98567.03;1789892;78;28418;-42
2022/06/23 10:28:08;;;;;;;1.30;1.00;;;;;;;31.19;40.02;98565.65;1757234;79;28405;-46
2022/06/23 10:31:12;;;;;;;1.62;1.00;;;;;;;31.19;39.98;98565.65;1793876;78;28432;-44
2022/06/23 10:34:18;;;;;;;0.82;0.82;;;;;;;31.20;39.94;98557.00;1747139;81;28540;-42
2022/06/23 10:37:13;;;;;;;1.60;1.10;;;;;;;31.21;39.94;98555.05;1776498;80;28382;-42
2022/06/23 10:40:24;;;;;;;1.15;0.90;;;;;;;31.22;39.93;98561.70;1809770;78;28382;-43
2022/06/23 10:43:27;;;;;;;1.17;0.90;;;;;;;31.24;39.90;98562.20;1786843;78;28458;-42
2022/06/23 10:46:34;;;;;;;1.10;1.00;;;;;;;31.24;39.91;98553.05;1793384;77;30743;-46
2022/06/23 10:49:38;;;;;;;0.80;0.80;;;;;;;31.24;39.91;98547.50;1837371;77;28264;-42
2022/06/23 10:52:32;;;;;;;0.90;0.90;;;;;;;31.25;39.88;98548.56;1832245;77;28183;-44
2022/06/23 10:55:24;;;;;;;1.03;0.90;;;;;;;31.25;39.88;98553.31;1840257;76;28178;-43
2022/06/23 10:58:33;;;;;;;1.40;1.00;;;;;;;31.27;39.89;98540.73;1797958;78;28259;-41
2022/06/23 11:01:50;;;;;;;0.93;0.93;;;;;;;31.29;39.84;98530.17;1790617;77;28398;-42
2022/06/23 11:05:17;;;;;;;0.90;0.90;;;;;;;31.29;39.78;98513.52;1816350;77;28233;-43
2022/06/23 11:08:26;;;;;;;1.02;0.93;;;;;;;31.28;39.80;98509.09;1822237;77;28240;-44
2022/06/23 11:11:26;;;;;;;1.02;0.93;;;;;;;31.26;39.82;98509.97;1814199;77;28220;-44
2022/06/23 11:14:42;;;;;;;1.77;0.90;;;;;;;31.24;39.81;98499.77;1814052;77;28335;-43
2022/06/23 11:17:48;;;;;;;1.32;1.07;;;;;;;31.29;39.79;98489.09;1822216;78;28330;-44
2022/06/23 11:20:43;;;;;;;0.90;0.90;;;;;;;31.27;39.78;98479.69;1827895;77;28364;-46
2022/06/23 11:23:40;;;;;;;0.88;0.88;;;;;;;31.28;39.78;98474.95;1821326;77;28269;-43
2022/06/23 11:26:37;;;;;;;0.70;0.70;;;;;;;31.30;39.72;98459.63;1826332;76;28196;-43
2022/06/23 11:29:57;;;;;;;0.80;0.80;;;;;;;31.32;39.72;98468.45;1843867;77;28149;-44
2022/06/23 11:33:17;;;;;;;0.80;0.80;;;;;;;31.33;39.69;98467.89;1821757;77;28126;-47
2022/06/23 11:36:11;;;;;;;0.78;0.78;;;;;;;31.32;39.69;98453.19;1843295;77;28307;-43
2022/06/23 11:39:18;;;;;;;0.70;0.70;;;;;;;31.29;39.68;98443.31;1795736;78;28246;-42
2022/06/23 11:42:35;;;;;;;0.82;0.82;;;;;;;31.33;39.65;98436.80;1808376;76;28275;-44
2022/06/23 11:45:51;;;;;;;1.00;1.00;;;;;;;31.34;39.61;98429.30;1780330;77;28337;-47
2022/06/23 11:48:57;;;;;;;0.93;0.82;;;;;;;31.31;39.66;98426.59;1783152;78;28468;-42
2022/06/23 11:52:01;;;;;;;1.50;0.80;;;;;;;31.32;39.66;98423.26;1767489;79;28546;-43
2022/06/23 11:55:08;;;;;;;1.30;0.80;;;;;;;31.32;39.66;98417.70;1819034;78;28324;-43
2022/06/23 11:58:07;;;;;;;1.15;0.95;;;;;;;31.35;39.63;98413.71;1820829;77;28237;-44
2022/06/23 12:01:18;;;;;;;0.90;0.80;;;;;;;31.35;39.65;98417.05;1819213;77;28344;-43
2022/06/23 12:04:41;;;;;;;0.82;0.82;;;;;;;31.38;39.54;98406.14;1828336;76;28410;-42
2022/06/23 12:07:38;;;;;;;0.80;0.80;;;;;;;31.37;39.59;98407.27;1815128;77;28283;-43
2022/06/23 12:10:29;;;;;;;0.85;0.80;;;;;;;31.34;39.64;98413.45;1811626;77;38345;-44
2022/06/23 12:13:18;;;;;;;0.80;0.80;;;;;;;31.37;39.57;98410.05;1822434;76;28274;-43
2022/06/23 12:16:07;;;;;;;0.80;0.80;;;;;;;31.41;39.53;98427.69;1822688;77;28434;-43
2022/06/23 12:19:04;;;;;;;0.70;0.70;;;;;;;31.46;39.42;98423.98;1847956;77;28197;-43
2022/06/23 12:21:57;;;;;;;0.82;0.82;;;;;;;31.48;39.35;98411.20;1845212;77;28248;-43
2022/06/23 12:25:00;;;;;;;0.70;0.70;;;;;;;31.49;39.36;98401.72;1837701;76;28220;-43
2022/06/23 12:28:10;;;;;;;1.00;1.00;;;;;;;31.49;39.36;98386.45;1785288;78;28283;-43
2022/06/23 12:31:16;;;;;;;0.70;0.70;;;;;;;31.49;39.38;98385.88;1810518;77;28293;-42
2022/06/23 12:34:17;;;;;;;1.30;0.78;;;;;;;31.46;39.44;98392.06;1805594;78;28276;-42
2022/06/23 12:37:28;;;;;;;0.98;0.98;;;;;;;31.45;39.47;98387.67;1801205;78;28314;-42
2022/06/23 12:40:25;;;;;;;0.90;0.90;;;;;;;31.47;39.42;98381.23;1833147;77;28331;-42
2022/06/23 12:43:19;;;;;;;1.20;0.90;;;;;;;31.45;39.40;98379.91;1809435;78;28360;-45
2022/06/23 12:46:29;;;;;;;0.80;0.80;;;;;;;31.48;39.42;98384.83;1802503;77;28246;-43
2022/06/23 12:49:42;;;;;;;1.40;1.00;;;;;;;31.49;39.34;98386.45;1822799;77;28331;-42
2022/06/23 12:52:34;;;;;;;0.90;0.90;;;;;;;31.47;39.37;98381.79;1814492;77;28321;-45
2022/06/23 12:55:25;;;;;;;0.70;0.70;;;;;;;31.44;39.38;98361.04;1775388;78;28422;-44
2022/06/23 12:58:46;;;;;;;1.10;1.00;;;;;;;31.46;39.40;98379.58;1813438;77;28287;-46
2022/06/23 13:01:46;;;;;;;1.17;0.80;;;;;;;31.48;39.35;98390.38;1807424;77;28343;-46
2022/06/23 13:04:41;;;;;;;1.40;0.82;;;;;;;31.47;39.36;98389.55;1811855;78;28317;-44
2022/06/23 13:07:52;;;;;;;1.35;0.93;;;;;;;31.47;39.35;98393.72;1825358;77;28297;-45
2022/06/23 13:10:50;;;;;;;0.70;0.70;;;;;;;31.50;39.30;98399.20;1829653;77;28328;-44
2022/06/23 13:13:54;;;;;;;0.68;0.68;;;;;;;31.48;39.31;98387.05;1832886;77;28158;-43
2022/06/23 13:16:49;;;;;;;0.70;0.70;;;;;;;31.49;39.29;98425.31;1811759;78;28246;-42
2022/06/23 13:19:40;;;;;;;0.72;0.72;;;;;;;31.48;39.31;98426.47;1842460;77;28414;-44
2022/06/23 13:22:29;;;;;;;0.78;0.78;;;;;;;31.51;39.29;98420.28;1838003;77;28146;-44
2022/06/23 13:25:20;;;;;;;0.80;0.80;;;;;;;31.53;39.17;98429.91;1816562;77;28319;-42
2022/06/23 13:28:11;;;;;;;1.00;0.80;;;;;;;31.56;39.20;98444.55;1832973;77;28218;-43
2022/06/23 13:31:03;;;;;;;1.00;0.70;;;;;;;31.58;39.12;98454.76;1837973;77;28223;-43
2022/06/23 13:33:54;;;;;;;0.90;0.90;;;;;;;31.59;39.05;98455.58;1813602;77;28225;-40
2022/06/23 13:36:55;;;;;;;0.90;0.80;;;;;;;31.62;39.05;98473.00;1829440;76;28191;-42
2022/06/23 13:40:06;;;;;;;0.80;0.80;;;;;;;31.63;39.01;98467.68;1831728;77;28280;-43
2022/06/23 13:43:10;;;;;;;1.02;0.93;;;;;;;31.63;38.99;98463.52;1831606;77;28340;-42
2022/06/23 13:46:08;;;;;;;1.42;0.70;;;;;;;31.61;39.04;98472.17;1812721;77;30341;-44
2022/06/23 13:49:08;;;;;;;0.70;0.70;;;;;;;31.59;39.05;98481.95;1841645;77;28309;-46
2022/06/23 13:52:11;;;;;;;0.90;0.72;;;;;;;31.60;39.03;98469.73;1824893;77;28219;-41
2022/06/23 13:55:02;;;;;;;1.05;0.70;;;;;;;31.58;39.13;98487.28;1831820;77;28286;-43
2022/06/23 13:58:15;;;;;;;0.80;0.80;;;;;;;31.59;39.07;98480.01;1828049;77;28169;-43
2022/06/23 14:01:09;;;;;;;0.53;0.53;;;;;;;31.60;39.07;98472.50;1811431;77;28414;-44
2022/06/23 14:04:03;;;;;;;0.68;0.68;;;;;;;31.58;39.10;98451.19;1809935;78;28327;-42
2022/06/23 14:07:07;;;;;;;0.90;0.80;;;;;;;31.58;39.08;98451.19;1814301;77;28232;-41
2022/06/23 14:10:20;;;;;;;0.80;0.80;;;;;;;31.60;39.01;98454.45;1807930;77;32221;-43
2022/06/23 14:13:17;;;;;;;0.90;0.90;;;;;;;31.59;39.07;98449.47;1837424;76;28185;-44
2022/06/23 14:16:18;;;;;;;1.07;0.78;;;;;;;31.57;39.12;98479.52;1776020;79;28344;-43